• Join FlightAware (Why Join?)
  • Login
  • US Flag 
08:18PM EDT


 

Airport Tracker/Info


-or-


 

Live Flight TrackerFlight Track Log ✈ SWA16 ✈ 29-Apr-2013 ✈ KECP - KHOU

Flight Track Log - Related Links

Times and Time Zones

All times are in EDT time to prevent confusion due to time zone crossing. See the SWA16 flight status page for this flight to view local times or setup timezone preferences in your user account.

Time Position Orientation Groundspeed Altitude Reporting Facility
EDT Latitude Longitude Course Direction KTS MPH feet Rate Location/Type
08:48AM 30.4372 -85.7356 267° West 229 264 6,700  Level Jacksonville Center
08:49AM 30.4931 -85.7661 335° Northwest 247 284 8,700 1,980 Climbing Jacksonville Center
08:50AM 30.5519 -85.8306 317° Northwest 242 278 10,700 2,040 Climbing Jacksonville Center
08:51AM 30.6150 -85.9050 315° West 288 331 12,800 2,100 Climbing Jacksonville Center
08:52AM 30.3390 -86.2707 267° West  Level Estimated
08:52AM 30.6822 -85.9819 315° West 321 369 15,000  Level Jacksonville Center
08:53AM 30.3342 -86.3816 267° West  Level Estimated
08:53AM 30.7553 -86.0642 316° Northwest 347 399 17,400  Level Jacksonville Center
08:54AM 30.3294 -86.4925 267° West  Level Estimated
08:54AM 30.8114 -86.1603 304° West 354 407 19,500  Level Jacksonville Center
08:55AM 30.8164 -86.2789 273° West 348 400 20,900 1,800 Climbing Jacksonville Center
08:56AM 30.8172 -86.4047 270° West 358 412 23,200 1,980 Climbing Jacksonville Center
08:57AM 30.8203 -86.5208 272° West 371 427 24,900 1,380 Climbing Jacksonville Center
08:58AM 30.8269 -86.6494 273° West 379 436 26,000 1,200 Climbing Jacksonville Center
08:59AM 30.8239 -86.7533 268° West 393 452 27,300 1,620 Climbing Jacksonville Center
09:00AM 30.8175 -86.8886 267° West 393 452 29,300 1,920 Climbing Jacksonville Center
09:01AM 30.8094 -87.0114 266° West 387 445 31,200 1,680 Climbing Jacksonville Center
09:03AM 30.7978 -87.1906 266° West 357 411 33,600 1,200 Climbing Houston Center
09:04AM 30.7911 -87.3086 266° West 364 419 34,300 720 Climbing Houston Center
09:05AM 30.7842 -87.4283 266° West 369 425 35,200 780 Climbing Houston Center
09:06AM 30.7764 -87.5486 266° West 372 428 36,000 360 Climbing Houston Center
09:07AM 30.7675 -87.6947 266° West 376 433 36,000  Level Houston Center
09:08AM 30.7589 -87.8200 265° West 377 434 36,000  Level Houston Center
09:09AM 30.7508 -87.9403 266° West 375 432 36,000  Level Houston Center
09:10AM 30.7214 -88.0567 254° West 374 430 36,000  Level Houston Center
09:11AM 30.6900 -88.1725 253° West 377 434 36,000  Level Houston Center
09:12AM 30.6603 -88.2892 254° West 374 430 36,000  Level Houston Center
09:13AM 30.6289 -88.4067 253° West 378 435 36,000  Level Houston Center
09:14AM 30.5983 -88.5242 253° West 379 436 36,000  Level Houston Center
09:15AM 30.5600 -88.6658 253° West 384 442 36,000  Level Houston Center
09:16AM 30.5292 -88.7828 253° West 380 437 36,000  Level Houston Center
09:17AM 30.4978 -88.9011 253° West 384 442 36,000  Level Houston Center
09:18AM 30.4678 -89.0153 253° West 384 442 36,000  Level Houston Center
09:19AM 30.4361 -89.1344 253° West 387 445 36,000  Level Houston Center
09:20AM 30.4042 -89.2514 252° West 382 440 36,000  Level Houston Center
09:21AM 30.3658 -89.3936 253° West 384 442 36,000  Level Houston Center
09:22AM 30.3342 -89.5119 253° West 384 442 36,000  Level Houston Center
09:23AM 30.3008 -89.6303 252° West 383 441 36,000  Level Houston Center
09:24AM 30.2658 -89.7503 251° West 386 444 36,000  Level Houston Center
09:25AM 30.2339 -89.8739 253° West 385 443 36,000  Level Houston Center
09:26AM 30.2025 -89.9900 253° West 377 434 36,000  Level Houston Center
09:27AM 30.1700 -90.1058 252° West 379 436 36,000  Level Houston Center
09:28AM 30.1381 -90.2211 252° West 376 433 36,000  Level Houston Center
09:30AM 30.0986 -90.3606 252° West 380 437 36,000  Level Houston Center
09:31AM 30.0653 -90.4767 252° West 381 438 36,000  Level Houston Center
09:32AM 30.0317 -90.5933 252° West 384 442 36,000  Level Houston Center
09:33AM 29.9986 -90.7114 252° West 386 444 36,000 -420 Level Houston Center
09:34AM 29.9664 -90.8292 253° West 387 445 35,200 -900 Descending Houston Center
09:35AM 29.9325 -90.9461 252° West 385 443 34,200 -600 Descending Houston Center
09:36AM 29.8928 -91.0878 252° West 388 447 34,000 -120 Descending Houston Center
09:37AM 29.8581 -91.2061 251° West 389 448 34,000  Level Houston Center
09:38AM 29.8236 -91.3256 252° West 392 451 34,000  Level Houston Center
09:39AM 29.7889 -91.4444 251° West 394 453 34,000  Level Houston Center
09:40AM 29.7533 -91.5650 251° West 398 458 34,000 -60 Level Houston Center
09:41AM 29.7194 -91.6853 252° West 396 456 33,900  Descending Houston Center
09:42AM 29.6764 -91.8272 251° West 398 458 34,000  Climbing Houston Center
09:43AM 29.6425 -91.9472 252° West 397 457 34,000  Level Houston Center
09:44AM 29.6056 -92.0675 251° West 399 459 34,000  Level Houston Center
09:45AM 29.5708 -92.1883 252° West 400 460 34,000  Level Houston Center
09:46AM 29.5350 -92.3100 251° West 401 461 34,000 -180 Level Houston Center
09:47AM 29.4986 -92.4306 251° West 400 460 33,700 -780 Descending Houston Center
09:48AM 29.4567 -92.5717 251° West 392 451 32,500 -1,080 Descending Houston Center
09:49AM 29.4217 -92.6861 251° West 384 442 31,500 -1,020 Descending Houston Center
09:50AM 29.3864 -92.8022 251° West 385 443 30,500 -960 Descending Houston Center
09:51AM 29.3503 -92.9200 251° West 389 448 29,600 -960 Descending Houston Center
09:52AM 29.3144 -93.0378 251° West 391 450 28,600 -780 Descending Houston Center
09:53AM 29.2781 -93.1561 251° West 393 452 28,000 -300 Descending Houston Center
09:54AM 29.2567 -93.3072 261° West 407 468 28,000  Level Houston Center
09:55AM 29.2589 -93.4317 271° West 396 456 28,000 -180 Level Houston Center
09:56AM 29.2597 -93.5567 270° West 392 451 27,700 -1,020 Descending Houston Center
09:57AM 29.2606 -93.6672 271° West 355 409 26,000 -1,800 Descending Houston Center
09:58AM 29.2628 -93.7747 271° West 340 391 24,100 -1,980 Descending Houston Center
10:00AM 29.2631 -93.8903 270° West 347 399 22,000 -1,980 Descending Houston Center
10:01AM 29.2650 -93.9986 271° West 343 395 20,100 -1,860 Descending Houston Center
10:02AM 29.2647 -94.1031 270° West 332 382 18,200 -2,040 Descending Houston Center
10:03AM 29.2661 -94.2272 271° West 325 374 16,000 -2,100 Descending Houston Center
10:03AM 29.2658 -94.2672 270° West 328 377 15,400 -1,800 Descending Houston Center
10:04AM 29.2669 -94.3308 271° West 325 374 14,200 -1,860 Descending Houston Center
10:04AM 29.2647 -94.4017 268° West 323 372 13,000 -1,800 Descending Houston Center
10:05AM 29.2675 -94.4328 276° West 321 369 12,400 -1,080 Descending Houston Center
10:05AM 29.2719 -94.4967 275° West 307 353 11,900 -600 Descending Houston Center
10:06AM 29.2850 -94.5228 300° West 293 337 11,800 -1,680 Descending Houston Center
10:06AM 29.3117 -94.5803 298° West 285 328 10,200 -1,800 Descending Houston Center
10:07AM 29.3247 -94.6003 307° West 284 327 10,000 -240 Descending Houston Center
10:07AM 29.3531 -94.6589 299° West 281 323 10,000  Level Houston Center
10:08AM 29.3628 -94.6778 301° West 281 323 10,000  Level Houston Center
10:08AM 29.3900 -94.7383 297° West 284 327 10,000  Level Houston Center
10:09AM 29.4089 -94.7728 302° West 284 327 10,000  Level Houston Center
10:09AM 29.4267 -94.8128 297° West 288 331 10,000  Level Houston Center
10:10AM 29.4492 -94.8528 303° West 289 333 10,000  Level Houston Center
10:10AM 29.4711 -94.9033 297° West 288 331 10,000  Level Houston Center
10:11AM 29.4881 -94.9328 303° West 288 331 10,000 -840 Level Houston Center
10:11AM 29.5125 -94.9847 298° West 287 330 9,200 -1,500 Descending Houston Center
10:12AM 29.5272 -95.0131 301° West 287 330 8,500 -1,560 Descending Houston Center
10:12AM 29.5514 -95.0639 299° West 286 329 7,600 -1,500 Descending Houston Center
10:13AM 29.5658 -95.0919 301° West 286 329 7,000 -1,500 Descending Houston Center
10:13AM 29.5883 -95.1433 297° West 285 328 6,100 -1,080 Descending Houston Center
10:14AM 29.5892 -95.1775 272° West 285 328 5,900 -120 Descending Houston Center
10:14AM 29.5703 -95.2200 243° Southwest 228 262 6,000 60 Climbing Houston Center
10:15AM 29.5556 -95.2436 234° Southwest 242 278 6,000 -540 Level Houston Center
10:15AM 29.5292 -95.2756 226° Southwest 225 259 5,500 -900 Descending Houston Center
10:16AM 29.5106 -95.2944 221° Southwest 230 265 5,100 -1,020 Descending Houston Center
10:16AM 29.4833 -95.3267 226° Southwest 217 250 4,500 -1,080 Descending Houston Center
10:17AM 29.4606 -95.3528 225° Southwest 219 252 4,000 -660 Descending Houston Center
10:18AM 29.4722 -95.3881 291° West 207 238 3,800 -540 Descending Houston Center
10:18AM 29.4858 -95.4103 305° West 208 239 3,500 -780 Descending Houston Center
10:19AM 29.5122 -95.4119 357° North 187 215 3,100 -900 Descending Houston Center
10:19AM 29.5367 -95.4064 11° North 184 212 2,600 -840 Descending Houston Center
10:20AM 29.5475 -95.3839 61° Northeast 174 200 2,300 -600 Descending Houston Center
10:20AM 29.5664 -95.3656 40° Northeast 176 203 2,000 -780 Descending Houston Center
10:21AM 29.5861 -95.3456 41° Northeast 181 208 1,500 -900 Descending Houston Center
10:21AM 29.6019 -95.3272 45° Northeast 175 201 1,100 -840 Descending Houston Center
10:22AM 29.6164 -95.3106 45° Northeast 137 158 700 -780 Descending Houston Center
10:22AM 29.6300 -95.2956 44° Northeast 157 181 300 -600 Descending Houston Center